Time;durP1;ratioP1;P1;durP2;ratioP2;P2;SDS_P1;SDS_P2;PMS_P1;PMS_P2;Temp;Humidity;BMP_temperature;BMP_pressure;BME280_temperature;BME280_humidity;BME280_pressure;Samples;Min_cycle;Max_cycle;Signal;HPM_P1;HPM_P2
2022/01/14 00:01:59;;;;;;;;;;;;;;;13.50;50.37;102309.25;4921847;28;100434;-65
2022/01/14 00:04:24;;;;;;;;;;;;;;;13.51;50.42;102323.63;4921153;28;128192;-57
2022/01/14 00:06:50;;;;;;;;;;;;;;;13.50;50.60;102330.09;4921655;28;119341;-58
2022/01/14 00:09:17;;;;;;;;;;;;;;;13.48;50.49;102322.22;4936789;28;97977;-57
2022/01/14 00:11:52;;;;;;;;;;;;;;;13.49;50.41;102320.34;4940550;28;97892;-57
2022/01/14 00:16:44;;;;;;;;;;;;;;;13.47;50.30;102312.44;4918757;28;97995;-57
2022/01/14 00:19:10;;;;;;;;;;;;;;;13.47;50.46;102309.72;4920349;28;123085;-57
2022/01/14 00:21:38;;;;;;;;;;;;;;;13.46;50.65;102299.97;4921777;28;103673;-57
2022/01/14 00:24:23;;;;;;;;;;;;;;;13.46;50.30;102302.69;4920527;28;98494;-57
2022/01/14 00:32:47;;;;;;;;;;;;;;;13.44;50.41;102296.69;4917389;28;98162;-65
2022/01/14 00:35:15;;;;;;;;;;;;;;;13.44;50.38;102298.56;4930197;28;98396;-57
2022/01/14 00:37:41;;;;;;;;;;;;;;;13.44;50.36;102301.25;4941878;28;98373;-57
2022/01/14 00:40:08;;;;;;;;;;;;;;;13.42;50.37;102296.09;4933478;28;121896;-65
2022/01/14 00:42:33;;;;;;;;;;;;;;;13.42;50.45;102306.94;4921059;28;99086;-65
2022/01/14 00:44:59;;;;;;;;;;;;;;;13.44;50.34;102304.81;4925383;28;127022;-65
2022/01/14 00:47:25;;;;;;;;;;;;;;;13.42;50.28;102298.00;4940303;28;126814;-65
2022/01/14 00:49:51;;;;;;;;;;;;;;;13.42;50.38;102298.81;4940162;28;118857;-65
2022/01/14 00:52:17;;;;;;;;;;;;;;;13.41;50.34;102296.34;4941639;28;105399;-57
2022/01/14 00:54:43;;;;;;;;;;;;;;;13.40;50.01;102300.94;4939125;28;128738;-57
2022/01/14 00:59:35;;;;;;;;;;;;;;;13.42;50.13;102309.66;4938308;28;107358;-65
2022/01/14 01:02:01;;;;;;;;;;;;;;;13.40;50.18;102302.81;4927559;28;128364;-57
2022/01/14 01:04:32;;;;;;;;;;;;;;;13.40;49.96;102317.22;4920336;28;98451;-57
2022/01/14 01:06:59;;;;;;;;;;;;;;;13.40;50.01;102314.50;4920136;28;98040;-65
2022/01/14 01:09:26;;;;;;;;;;;;;;;13.40;49.96;102316.34;4920929;28;97755;-57
2022/01/14 01:12:08;;;;;;;;;;;;;;;13.39;50.02;102306.59;4920987;28;98570;-65
2022/01/14 01:14:49;;;;;;;;;;;;;;;13.39;50.12;102323.66;4920199;28;98039;-65
2022/01/14 01:17:15;;;;;;;;;;;;;;;13.38;49.87;102327.44;4919884;28;98109;-58
2022/01/14 01:19:41;;;;;;;;;;;;;;;13.39;50.19;102328.25;4922919;28;97953;-65
2022/01/14 01:22:07;;;;;;;;;;;;;;;13.39;49.82;102333.69;4940531;28;106971;-58
2022/01/14 01:24:33;;;;;;;;;;;;;;;13.38;50.18;102332.84;4940042;28;97894;-57
2022/01/14 01:27:05;;;;;;;;;;;;;;;13.39;50.19;102330.97;4938022;28;97881;-65
2022/01/14 01:29:46;;;;;;;;;;;;;;;13.39;50.27;102325.56;4927138;28;97779;-66
2022/01/14 01:32:12;;;;;;;;;;;;;;;13.39;49.95;102328.25;4920116;28;98258;-57
2022/01/14 01:34:38;;;;;;;;;;;;;;;13.38;50.20;102327.44;4919528;28;128114;-57
2022/01/14 01:37:05;;;;;;;;;;;;;;;13.37;49.89;102328.50;4920275;28;97815;-65
2022/01/14 01:39:33;;;;;;;;;;;;;;;13.37;50.08;102328.50;4920246;28;122047;-57
2022/01/14 01:42:09;;;;;;;;;;;;;;;13.37;50.07;102330.41;4939502;28;98622;-57
2022/01/14 01:44:39;;;;;;;;;;;;;;;13.38;50.12;102321.22;4935823;28;119250;-57
2022/01/14 01:47:05;;;;;;;;;;;;;;;13.37;50.00;102325.81;4930868;28;98142;-65
2022/01/14 01:49:32;;;;;;;;;;;;;;;13.38;50.15;102326.63;4940716;28;98420;-57
2022/01/14 01:51:59;;;;;;;;;;;;;;;13.37;50.03;102317.69;4923214;28;122222;-57
2022/01/14 01:54:25;;;;;;;;;;;;;;;13.37;49.96;102317.69;4917440;28;121627;-57
2022/01/14 01:56:51;;;;;;;;;;;;;;;13.37;49.89;102311.44;4935710;28;123619;-57
2022/01/14 01:59:18;;;;;;;;;;;;;;;13.37;50.04;102317.69;4938881;28;122841;-57
2022/01/14 02:01:44;;;;;;;;;;;;;;;13.36;49.89;102315.19;4938571;28;118736;-64
2022/01/14 02:04:10;;;;;;;;;;;;;;;13.37;49.92;102311.44;4930273;28;111438;-57
2022/01/14 02:06:37;;;;;;;;;;;;;;;13.36;49.86;102312.47;4918172;28;128082;-65
2022/01/14 02:09:03;;;;;;;;;;;;;;;13.35;49.92;102308.97;4919029;28;97781;-57
2022/01/14 02:11:29;;;;;;;;;;;;;;;13.36;50.08;102320.59;4920289;28;110823;-65
2022/01/14 02:13:58;;;;;;;;;;;;;;;13.35;50.28;102317.09;4919268;28;127871;-64
2022/01/14 02:16:47;;;;;;;;;;;;;;;13.35;49.78;102317.09;4939184;28;98156;-65
2022/01/14 02:19:26;;;;;;;;;;;;;;;13.35;50.10;102311.66;4939855;28;98142;-57
2022/01/14 02:22:12;;;;;;;;;;;;;;;13.35;49.84;102316.25;4923793;28;98370;-58
2022/01/14 02:27:09;;;;;;;;;;;;;;;13.34;49.99;102304.63;4916887;28;97797;-57
2022/01/14 02:29:35;;;;;;;;;;;;;;;13.33;49.96;102302.16;4919361;28;99474;-57
2022/01/14 02:32:01;;;;;;;;;;;;;;;13.33;50.04;102292.13;4918926;28;99307;-65
2022/01/14 02:34:27;;;;;;;;;;;;;;;13.34;49.99;102290.25;4933976;28;98985;-57
2022/01/14 02:36:53;;;;;;;;;;;;;;;13.33;49.73;102284.03;4918648;28;127574;-64
2022/01/14 02:39:19;;;;;;;;;;;;;;;13.33;49.99;102278.59;4919307;28;102525;-65
2022/01/14 02:41:46;;;;;;;;;;;;;;;13.33;49.91;102280.50;4918587;28;124254;-65
2022/01/14 02:44:24;;;;;;;;;;;;;;;13.31;49.80;102275.28;4936760;28;111549;-64
2022/01/14 02:46:56;;;;;;;;;;;;;;;13.30;49.90;102276.38;4899235;28;97877;-57
2022/01/14 02:49:26;;;;;;;;;;;;;;;13.31;49.78;102267.16;4900791;28;97966;-58
2022/01/14 02:51:52;;;;;;;;;;;;;;;13.29;50.05;102261.19;4920477;28;98311;-65
2022/01/14 02:54:22;;;;;;;;;;;;;;;13.30;49.97;102262.81;4920035;28;98100;-57
2022/01/14 02:56:51;;;;;;;;;;;;;;;13.29;49.79;102261.19;4903052;28;98282;-57
2022/01/14 02:59:17;;;;;;;;;;;;;;;13.29;49.73;102261.19;4903073;28;115461;-57
2022/01/14 03:01:44;;;;;;;;;;;;;;;13.29;49.84;102271.22;4940889;28;118485;-57
2022/01/14 03:04:10;;;;;;;;;;;;;;;13.28;50.03;102264.94;4941690;28;98646;-55
2022/01/14 03:06:35;;;;;;;;;;;;;;;13.29;49.90;102268.50;4922794;28;126828;-65
2022/01/14 03:09:02;;;;;;;;;;;;;;;13.28;49.75;102259.53;4942054;28;120459;-57
2022/01/14 03:11:34;;;;;;;;;;;;;;;13.27;49.78;102257.88;4924444;28;98816;-65
2022/01/14 03:14:00;;;;;;;;;;;;;;;13.27;49.68;102266.00;4919876;28;118635;-58
2022/01/14 03:16:26;;;;;;;;;;;;;;;13.27;49.88;102257.88;4920133;28;98105;-65
2022/01/14 03:19:03;;;;;;;;;;;;;;;13.26;49.81;102254.38;4922455;28;97998;-57
2022/01/14 03:21:36;;;;;;;;;;;;;;;13.26;50.00;102248.94;4922884;28;98408;-57
2022/01/14 03:24:23;;;;;;;;;;;;;;;13.25;49.94;102250.03;4937498;28;98556;-57
2022/01/14 03:26:51;;;;;;;;;;;;;;;13.24;49.99;102242.97;4921979;28;98481;-64
2022/01/14 03:29:17;;;;;;;;;;;;;;;13.26;49.86;102250.84;4920611;28;100824;-57
2022/01/14 03:31:44;;;;;;;;;;;;;;;13.24;49.87;102242.13;4932248;28;98429;-57
2022/01/14 03:34:10;;;;;;;;;;;;;;;13.25;49.89;102251.91;4941172;28;109608;-66
2022/01/14 03:36:35;;;;;;;;;;;;;;;13.25;49.92;102244.59;4938792;28;102710;-65
2022/01/14 03:39:02;;;;;;;;;;;;;;;13.25;49.99;102243.78;4928595;28;107001;-65
2022/01/14 03:41:28;;;;;;;;;;;;;;;13.24;50.06;102242.97;4921995;28;98474;-57
2022/01/14 03:43:54;;;;;;;;;;;;;;;13.24;49.95;102237.56;4922334;28;99071;-57
2022/01/14 03:46:20;;;;;;;;;;;;;;;13.24;49.95;102237.56;4921404;28;128081;-57
2022/01/14 03:48:45;;;;;;;;;;;;;;;13.24;49.89;102228.56;4921931;28;97934;-57
2022/01/14 03:51:12;;;;;;;;;;;;;;;13.23;49.87;102229.66;4920213;28;127930;-57
2022/01/14 03:53:39;;;;;;;;;;;;;;;13.21;50.05;102224.47;4921751;28;98582;-56
2022/01/14 03:56:05;;;;;;;;;;;;;;;13.21;49.81;102227.16;4921813;28;99473;-65
2022/01/14 03:58:31;;;;;;;;;;;;;;;13.21;49.93;102220.94;4922575;28;97794;-57
2022/01/14 04:00:57;;;;;;;;;;;;;;;13.20;50.08;102221.97;4922380;28;98391;-57
2022/01/14 04:03:23;;;;;;;;;;;;;;;13.20;50.03;102216.56;4921995;28;127205;-65
2022/01/14 04:05:49;;;;;;;;;;;;;;;13.19;50.17;102218.44;4919692;28;121976;-65
2022/01/14 04:08:15;;;;;;;;;;;;;;;13.18;50.02;102211.41;4921373;28;97774;-65
2022/01/14 04:10:41;;;;;;;;;;;;;;;13.19;49.95;102209.50;4920480;28;107601;-57
2022/01/14 04:13:15;;;;;;;;;;;;;;;13.16;50.15;102199.97;4936195;28;98148;-57
2022/01/14 04:15:43;;;;;;;;;;;;;;;13.18;49.98;102205.16;4932067;28;98009;-65
2022/01/14 04:18:09;;;;;;;;;;;;;;;13.17;49.97;102200.81;4941039;28;97965;-64
2022/01/14 04:20:36;;;;;;;;;;;;;;;13.16;49.78;102202.69;4940226;28;98230;-57
2022/01/14 04:23:02;;;;;;;;;;;;;;;13.15;50.06;102190.22;4940970;28;102693;-57
2022/01/14 04:25:28;;;;;;;;;;;;;;;13.16;50.13;102191.03;4940935;28;98300;-57
2022/01/14 04:27:54;;;;;;;;;;;;;;;13.16;50.16;102185.63;4941839;28;98007;-64
2022/01/14 04:30:20;;;;;;;;;;;;;;;13.15;50.20;102187.50;4932807;28;102741;-64
2022/01/14 04:32:46;;;;;;;;;;;;;;;13.16;50.08;102185.63;4921876;28;101059;-57
2022/01/14 04:35:12;;;;;;;;;;;;;;;13.15;50.10;102189.41;4919816;28;128360;-58
2022/01/14 04:37:38;;;;;;;;;;;;;;;13.15;50.13;102194.81;4921173;28;97878;-65
2022/01/14 04:40:05;;;;;;;;;;;;;;;13.14;50.00;102187.75;4920222;28;127566;-64
2022/01/14 04:42:31;;;;;;;;;;;;;;;13.14;49.98;102187.75;4921427;28;100518;-65
2022/01/14 04:44:57;;;;;;;;;;;;;;;13.13;50.08;102184.25;4925865;28;98705;-58
2022/01/14 04:47:56;;;;;;;;;;;;;;;13.12;50.17;102188.00;4941063;28;97818;-57
2022/01/14 04:50:17;;;;;;;;;;;;;;;13.13;50.03;102184.25;4899952;28;98868;-57
2022/01/14 04:52:44;;;;;;;;;;;;;;;13.13;50.06;102188.84;4898712;28;98980;-57
2022/01/14 04:55:11;;;;;;;;;;;;;;;13.14;50.10;102187.75;4906870;28;99032;-57
2022/01/14 04:57:37;;;;;;;;;;;;;;;13.13;49.96;102183.41;4920791;28;116146;-57
2022/01/14 05:00:05;;;;;;;;;;;;;;;13.13;50.17;102184.25;4922997;28;123652;-65
2022/01/14 05:02:31;;;;;;;;;;;;;;;13.12;50.12;102184.47;4920185;28;98663;-57
2022/01/14 05:04:59;;;;;;;;;;;;;;;13.13;50.27;102184.25;4920763;28;97772;-58
2022/01/14 05:07:26;;;;;;;;;;;;;;;13.13;50.03;102180.72;4920304;28;97805;-65
2022/01/14 05:12:31;;;;;;;;;;;;;;;13.12;50.10;102169.03;4918034;28;98159;-57
2022/01/14 05:14:57;;;;;;;;;;;;;;;13.13;50.12;102167.19;4936952;28;118671;-57
2022/01/14 05:17:22;;;;;;;;;;;;;;;13.12;50.17;102155.50;4938930;28;121412;-56
2022/01/14 05:19:49;;;;;;;;;;;;;;;13.13;50.00;102159.06;4938666;28;127876;-57
2022/01/14 05:22:16;;;;;;;;;;;;;;;13.12;50.00;102155.50;4939935;28;125884;-65
2022/01/14 05:24:42;;;;;;;;;;;;;;;13.11;50.17;102156.56;4936755;28;98685;-65
2022/01/14 05:27:07;;;;;;;;;;;;;;;13.12;50.27;102154.69;4919760;28;124584;-57
2022/01/14 05:29:33;;;;;;;;;;;;;;;13.11;50.18;102147.63;4919361;28;110275;-57
2022/01/14 05:32:03;;;;;;;;;;;;;;;13.11;50.11;102142.22;4937518;28;126670;-57
2022/01/14 05:34:33;;;;;;;;;;;;;;;13.11;50.19;102153.88;4939026;28;98320;-57
2022/01/14 05:36:59;;;;;;;;;;;;;;;13.10;50.19;102146.81;4937076;28;117150;-57
2022/01/14 05:39:25;;;;;;;;;;;;;;;13.11;50.22;102150.34;4933141;28;101943;-57
2022/01/14 05:41:52;;;;;;;;;;;;;;;13.11;50.19;102145.75;4916097;28;98819;-57
2022/01/14 05:44:18;;;;;;;;;;;;;;;13.10;50.10;102149.53;4917702;28;98880;-57
2022/01/14 05:46:44;;;;;;;;;;;;;;;13.10;50.27;102146.81;4920014;28;98200;-57
2022/01/14 05:49:10;;;;;;;;;;;;;;;13.09;50.30;102138.94;4919476;28;98219;-57
2022/01/14 05:51:36;;;;;;;;;;;;;;;13.09;50.21;102139.75;4918554;28;128728;-57
2022/01/14 05:54:02;;;;;;;;;;;;;;;13.10;50.26;102127.03;4931325;28;126956;-57
2022/01/14 05:56:28;;;;;;;;;;;;;;;13.09;50.32;102126.22;4937300;28;123361;-57
2022/01/14 05:58:54;;;;;;;;;;;;;;;13.10;50.32;102124.34;4935609;28;127283;-57
2022/01/14 06:01:20;;;;;;;;;;;;;;;13.09;50.40;102126.22;4937917;28;128789;-57
2022/01/14 06:03:46;;;;;;;;;;;;;;;13.08;50.22;102127.28;4936845;28;97933;-57
2022/01/14 06:06:12;;;;;;;;;;;;;;;13.07;50.35;102132.94;4936117;28;113811;-56
2022/01/14 06:08:38;;;;;;;;;;;;;;;13.08;50.24;102137.28;4935832;28;113969;-57
2022/01/14 06:11:04;;;;;;;;;;;;;;;13.07;50.22;102136.47;4937469;28;128132;-57
2022/01/14 06:13:30;;;;;;;;;;;;;;;13.07;50.32;102130.22;4937710;28;98376;-57
2022/01/14 06:15:56;;;;;;;;;;;;;;;13.07;50.22;102122.13;4938577;28;105355;-57
2022/01/14 06:18:22;;;;;;;;;;;;;;;13.06;50.30;102132.13;4937331;28;128097;-57
2022/01/14 06:20:48;;;;;;;;;;;;;;;13.07;50.27;102122.13;4935104;28;108156;-57
2022/01/14 06:23:14;;;;;;;;;;;;;;;13.06;50.47;102120.47;4925003;28;97930;-57
2022/01/14 06:25:40;;;;;;;;;;;;;;;13.06;50.28;102128.59;4917754;28;114376;-57
2022/01/14 06:28:05;;;;;;;;;;;;;;;13.05;50.43;102125.06;4920673;28;124306;-57
2022/01/14 06:30:31;;;;;;;;;;;;;;;13.05;50.46;102118.81;4936418;28;126139;-57
2022/01/14 06:32:57;;;;;;;;;;;;;;;13.05;50.46;102125.06;4922598;28;127703;-57
2022/01/14 06:35:23;;;;;;;;;;;;;;;13.05;50.18;102119.66;4932297;28;120103;-57
2022/01/14 06:37:49;;;;;;;;;;;;;;;13.04;50.30;102112.59;4900732;28;118839;-57
2022/01/14 06:40:15;;;;;;;;;;;;;;;13.03;50.10;102103.66;4911458;28;118025;-57
2022/01/14 06:42:41;;;;;;;;;;;;;;;13.05;50.39;102100.72;4938024;28;98029;-57
2022/01/14 06:45:08;;;;;;;;;;;;;;;13.04;50.36;102104.47;4919402;28;98055;-57
2022/01/14 06:47:34;;;;;;;;;;;;;;;13.04;50.33;102101.75;4918099;28;101884;-57
2022/01/14 06:50:00;;;;;;;;;;;;;;;13.03;50.29;102095.53;4918418;28;110386;-57
2022/01/14 06:52:26;;;;;;;;;;;;;;;13.03;50.52;102083.88;4917551;28;121374;-57
2022/01/14 06:54:52;;;;;;;;;;;;;;;13.03;50.34;102100.13;4937408;28;97893;-57
2022/01/14 06:57:19;;;;;;;;;;;;;;;13.02;50.32;102099.31;4935847;28;119618;-57
2022/01/14 06:59:44;;;;;;;;;;;;;;;13.02;50.35;102095.78;4935966;28;99267;-57
2022/01/14 07:02:10;;;;;;;;;;;;;;;13.01;50.34;102103.09;4936374;28;127502;-57
2022/01/14 07:04:36;;;;;;;;;;;;;;;13.02;50.32;102098.50;4936838;28;119546;-57
2022/01/14 07:07:03;;;;;;;;;;;;;;;13.00;50.48;102096.00;4936973;28;128382;-57
2022/01/14 07:09:30;;;;;;;;;;;;;;;13.01;50.31;102099.56;4936192;28;120766;-57
2022/01/14 07:11:58;;;;;;;;;;;;;;;13.01;50.37;102100.38;4938219;28;98161;-57
2022/01/14 07:14:25;;;;;;;;;;;;;;;13.00;50.51;102098.72;4936396;28;97737;-57
2022/01/14 07:16:51;;;;;;;;;;;;;;;13.01;50.50;102103.09;4920399;28;99012;-57
2022/01/14 07:19:19;;;;;;;;;;;;;;;13.02;50.39;102101.19;4931607;28;99076;-65
2022/01/14 07:21:45;;;;;;;;;;;;;;;13.01;50.29;102099.56;4939199;28;98017;-57
2022/01/14 07:24:13;;;;;;;;;;;;;;;13.02;50.37;102098.50;4937756;28;122554;-57
2022/01/14 07:26:39;;;;;;;;;;;;;;;13.03;50.57;102092.00;4919430;28;98251;-65
2022/01/14 07:29:05;;;;;;;;;;;;;;;13.02;50.53;102091.19;4919615;28;98447;-57
2022/01/14 07:31:31;;;;;;;;;;;;;;;13.03;50.43;102086.59;4935205;28;128221;-62
2022/01/14 07:33:57;;;;;;;;;;;;;;;13.03;50.42;102087.41;4938532;28;123087;-65
2022/01/14 07:36:23;;;;;;;;;;;;;;;13.05;50.28;102078.22;4922003;28;108570;-65
2022/01/14 07:38:49;;;;;;;;;;;;;;;13.05;50.21;102072.78;4932574;28;109199;-57
2022/01/14 07:41:15;;;;;;;;;;;;;;;13.05;50.40;102075.50;4919073;28;117003;-64
2022/01/14 07:43:45;;;;;;;;;;;;;;;13.04;50.39;102066.56;4923268;28;98863;-57
2022/01/14 07:46:11;;;;;;;;;;;;;;;13.06;50.40;102067.16;4923195;28;98262;-65
2022/01/14 07:48:37;;;;;;;;;;;;;;;13.06;50.30;102060.94;4921710;28;100305;-57
2022/01/14 07:51:03;;;;;;;;;;;;;;;13.07;50.31;102081.50;4920167;28;127612;-57
2022/01/14 07:53:29;;;;;;;;;;;;;;;13.07;50.47;102084.22;4920603;28;124186;-58
2022/01/14 07:55:55;;;;;;;;;;;;;;;13.07;50.44;102084.22;4921867;28;98722;-57
2022/01/14 07:58:21;;;;;;;;;;;;;;;13.06;50.44;102094.22;4934216;28;128020;-57
2022/01/14 08:00:47;;;;;;;;;;;;;;;13.07;50.44;102095.84;4920414;28;104149;-57
2022/01/14 08:03:13;;;;;;;;;;;;;;;13.08;50.23;102094.78;4920995;28;123996;-57
2022/01/14 08:05:39;;;;;;;;;;;;;;;13.10;50.37;102099.97;4938633;28;128374;-57
2022/01/14 08:08:07;;;;;;;;;;;;;;;13.09;50.18;102111.88;4939197;28;110586;-57
2022/01/14 08:10:34;;;;;;;;;;;;;;;13.10;50.33;102114.31;4939267;28;98463;-57
2022/01/14 08:13:00;;;;;;;;;;;;;;;13.11;50.12;102113.25;4925136;28;97887;-57
2022/01/14 08:15:26;;;;;;;;;;;;;;;13.11;50.21;102110.53;4919820;28;98548;-57
2022/01/14 08:17:53;;;;;;;;;;;;;;;13.11;50.12;102117.84;4920678;28;125878;-57
2022/01/14 08:20:19;;;;;;;;;;;;;;;13.12;50.24;102114.06;4919873;28;98470;-57
2022/01/14 08:22:45;;;;;;;;;;;;;;;13.12;50.16;102117.59;4920514;28;97993;-57
2022/01/14 08:25:11;;;;;;;;;;;;;;;13.13;50.00;102119.25;4925113;28;125227;-57
2022/01/14 08:27:37;;;;;;;;;;;;;;;13.13;49.99;102116.56;4939285;28;113544;-57
2022/01/14 08:30:04;;;;;;;;;;;;;;;13.15;50.20;102119.00;4939087;28;126610;-57
2022/01/14 08:32:30;;;;;;;;;;;;;;;13.13;50.09;102130.09;4933640;28;110692;-57
2022/01/14 08:34:56;;;;;;;;;;;;;;;13.15;50.22;102129.84;4919635;28;127990;-57
2022/01/14 08:37:22;;;;;;;;;;;;;;;13.15;49.89;102148.78;4916445;28;129234;-57
2022/01/14 08:39:48;;;;;;;;;;;;;;;13.15;50.01;102137.97;4923584;28;99613;-57
2022/01/14 08:42:14;;;;;;;;;;;;;;;13.15;50.09;102151.50;4939567;28;123472;-57
2022/01/14 08:44:40;;;;;;;;;;;;;;;13.15;49.93;102144.19;4935891;28;98182;-57
2022/01/14 08:47:09;;;;;;;;;;;;;;;13.17;49.82;102144.78;4920496;28;98146;-57
2022/01/14 08:49:39;;;;;;;;;;;;;;;13.16;50.29;102143.13;4919731;28;98778;-57
2022/01/14 08:52:06;;;;;;;;;;;;;;;13.17;50.21;102135.84;4920410;28;97803;-57
2022/01/14 08:54:32;;;;;;;;;;;;;;;13.17;50.04;102136.66;4919804;28;99455;-57
2022/01/14 08:56:58;;;;;;;;;;;;;;;13.17;50.15;102131.25;4929449;28;123544;-57
2022/01/14 08:59:24;;;;;;;;;;;;;;;13.19;50.07;102129.09;4919336;28;114575;-57
2022/01/14 09:01:50;;;;;;;;;;;;;;;13.19;50.20;102142.63;4919789;28;122499;-57
2022/01/14 09:04:16;;;;;;;;;;;;;;;13.19;50.14;102129.09;4918582;28;110292;-57
2022/01/14 09:06:42;;;;;;;;;;;;;;;13.20;50.04;102138.88;4925520;28;98731;-57
2022/01/14 09:09:08;;;;;;;;;;;;;;;13.22;49.97;102131.31;4938678;28;127023;-57
2022/01/14 09:11:34;;;;;;;;;;;;;;;13.23;49.99;102127.56;4937873;28;98321;-57
2022/01/14 09:14:00;;;;;;;;;;;;;;;13.25;49.90;102128.16;4938664;28;127382;-57
2022/01/14 09:16:26;;;;;;;;;;;;;;;13.27;49.93;102122.50;4937878;28;128866;-57
2022/01/14 09:18:52;;;;;;;;;;;;;;;13.30;49.81;102118.47;4920256;28;128346;-57
2022/01/14 09:21:18;;;;;;;;;;;;;;;13.32;50.08;102109.03;4918612;28;119442;-57
2022/01/14 09:23:51;;;;;;;;;;;;;;;13.34;50.01;102106.09;4917932;28;127232;-57
2022/01/14 09:26:18;;;;;;;;;;;;;;;13.36;49.99;102115.63;4921380;28;99664;-57
2022/01/14 09:28:44;;;;;;;;;;;;;;;13.38;50.08;102127.00;4938735;28;98098;-57
2022/01/14 09:31:10;;;;;;;;;;;;;;;13.38;50.02;102121.59;4938173;28;122613;-57
2022/01/14 09:33:37;;;;;;;;;;;;;;;13.40;49.97;102122.19;4931005;28;126010;-57
2022/01/14 09:36:04;;;;;;;;;;;;;;;13.41;49.86;102112.97;4919555;28;98672;-57
2022/01/14 09:38:30;;;;;;;;;;;;;;;13.41;50.06;102118.41;4918780;28;97969;-57
2022/01/14 09:40:56;;;;;;;;;;;;;;;13.42;50.13;102119.22;4918450;28;109259;-57
2022/01/14 09:43:22;;;;;;;;;;;;;;;13.42;50.24;102105.69;4933362;28;120528;-57
2022/01/14 09:45:51;;;;;;;;;;;;;;;13.43;49.93;102113.53;4919791;28;120075;-57
2022/01/14 09:48:17;;;;;;;;;;;;;;;13.44;50.15;102117.06;4938884;28;98075;-57
2022/01/14 09:50:44;;;;;;;;;;;;;;;13.43;50.18;102118.97;4938151;28;97940;-57
2022/01/14 09:53:16;;;;;;;;;;;;;;;13.43;50.17;102113.53;4939530;28;98611;-57
2022/01/14 09:55:42;;;;;;;;;;;;;;;13.44;50.30;102117.91;4936894;28;98424;-57
2022/01/14 09:58:08;;;;;;;;;;;;;;;13.45;50.44;102118.72;4938865;28;98530;-57
2022/01/14 10:00:35;;;;;;;;;;;;;;;13.46;50.20;102106.81;4929081;28;97828;-57
2022/01/14 10:03:01;;;;;;;;;;;;;;;13.46;50.05;102114.94;4919181;28;98260;-57
2022/01/14 10:05:34;;;;;;;;;;;;;;;13.46;50.08;102090.56;4918387;28;98212;-57
2022/01/14 10:08:17;;;;;;;;;;;;;;;13.47;50.04;102097.63;4919742;28;97780;-57
2022/01/14 10:10:50;;;;;;;;;;;;;;;13.48;50.28;102100.09;4930037;28;97836;-57
2022/01/14 10:13:19;;;;;;;;;;;;;;;13.49;50.19;102092.78;4939192;28;98102;-55
2022/01/14 10:16:00;;;;;;;;;;;;;;;13.49;50.18;102090.91;4927906;28;100177;-57
2022/01/14 10:18:26;;;;;;;;;;;;;;;13.51;50.23;102101.47;4931933;28;118650;-57
2022/01/14 10:20:52;;;;;;;;;;;;;;;13.52;50.11;102103.13;4918381;28;98038;-57
2022/01/14 10:23:38;;;;;;;;;;;;;;;13.54;50.26;102102.88;4919886;28;100198;-57
2022/01/14 10:26:04;;;;;;;;;;;;;;;13.57;49.91;102099.69;4930566;28;98916;-58
2022/01/14 10:28:30;;;;;;;;;;;;;;;13.58;49.90;102095.91;4925822;28;122865;-57
2022/01/14 10:30:56;;;;;;;;;;;;;;;13.63;50.24;102112.22;4921509;28;122448;-57
2022/01/14 10:33:26;;;;;;;;;;;;;;;13.62;50.32;102097.03;4918112;28;127322;-57
2022/01/14 10:35:52;;;;;;;;;;;;;;;13.66;50.27;102088.16;4917906;28;98104;-57
2022/01/14 10:38:19;;;;;;;;;;;;;;;13.68;50.27;102082.50;4917486;28;128492;-57
2022/01/14 10:40:53;;;;;;;;;;;;;;;13.70;50.22;102066.81;4918656;28;108277;-57
2022/01/14 10:43:23;;;;;;;;;;;;;;;13.72;50.23;102073.63;4937366;28;98731;-57
2022/01/14 10:45:50;;;;;;;;;;;;;;;13.74;50.24;102062.53;4937853;28;98415;-57
2022/01/14 10:48:29;;;;;;;;;;;;;;;13.75;50.00;102056.88;4916763;28;98727;-57
2022/01/14 10:51:00;;;;;;;;;;;;;;;13.78;50.18;102055.53;4898990;28;97912;-57
2022/01/14 10:53:28;;;;;;;;;;;;;;;13.81;50.23;102068.59;4898653;28;98347;-57
2022/01/14 10:56:03;;;;;;;;;;;;;;;13.84;50.19;102061.88;4926216;28;116873;-57
2022/01/14 10:58:31;;;;;;;;;;;;;;;13.85;50.10;102067.03;4936398;28;104461;-57
2022/01/14 11:01:08;;;;;;;;;;;;;;;13.86;49.97;102075.97;4936016;28;98135;-57
2022/01/14 11:03:38;;;;;;;;;;;;;;;13.87;49.88;102069.47;4909303;28;98230;-57
2022/01/14 11:06:40;;;;;;;;;;;;;;;13.88;50.23;102069.25;4916865;28;118514;-58
2022/01/14 11:09:11;;;;;;;;;;;;;;;13.90;50.36;102063.56;4874691;28;98959;-65
2022/01/14 11:11:39;;;;;;;;;;;;;;;13.92;50.17;102045.16;4910555;28;97943;-57
2022/01/14 11:14:05;;;;;;;;;;;;;;;13.95;50.32;102036.50;4920513;28;112981;-66
2022/01/14 11:16:32;;;;;;;;;;;;;;;13.97;49.85;102040.63;4938344;28;98572;-57
2022/01/14 11:19:00;;;;;;;;;;;;;;;14.04;50.18;102047.75;4940152;28;104503;-65
2022/01/14 11:24:15;;;;;;;;;;;;;;;14.06;49.83;102067.28;4939260;28;98034;-57
2022/01/14 11:26:40;;;;;;;;;;;;;;;14.09;50.30;102062.19;4940778;28;98720;-57
2022/01/14 11:29:15;;;;;;;;;;;;;;;14.11;50.04;102053.78;4941177;28;127186;-65
2022/01/14 11:31:41;;;;;;;;;;;;;;;14.12;50.21;102060.88;4923639;28;97919;-57
2022/01/14 11:34:10;;;;;;;;;;;;;;;14.12;49.96;102031.84;4922092;28;98960;-58
2022/01/14 11:36:50;;;;;;;;;;;;;;;14.14;50.25;102024.25;4922610;28;98348;-57
2022/01/14 11:39:26;;;;;;;;;;;;;;;14.16;49.99;102022.13;4929023;28;119068;-66
2022/01/14 11:41:57;;;;;;;;;;;;;;;14.18;50.13;102028.09;4941796;28;104049;-65
2022/01/14 11:44:58;;;;;;;;;;;;;;;14.23;49.59;102016.53;4941745;28;97796;-58
2022/01/14 11:47:46;;;;;;;;;;;;;;;14.24;49.80;102008.13;4942042;28;98813;-57
2022/01/14 11:50:36;;;;;;;;;;;;;;;14.29;50.08;102007.34;4938990;28;97779;-57
2022/01/14 11:53:02;;;;;;;;;;;;;;;14.31;50.12;102001.69;4915336;28;98128;-65
2022/01/14 11:55:29;;;;;;;;;;;;;;;14.32;50.15;102003.31;4922169;28;97922;-66
2022/01/14 11:57:56;;;;;;;;;;;;;;;14.29;50.29;102007.34;4922052;28;98228;-57
2022/01/14 12:00:30;;;;;;;;;;;;;;;14.27;50.32;102006.00;4922044;28;97929;-65
2022/01/14 12:03:13;;;;;;;;;;;;;;;14.29;50.28;101995.69;4928637;28;97820;-65
2022/01/14 12:05:50;;;;;;;;;;;;;;;14.29;50.23;102010.06;4940629;28;98402;-65
2022/01/14 12:08:23;;;;;;;;;;;;;;;14.27;50.37;102008.69;4932044;28;99470;-65
2022/01/14 12:10:59;;;;;;;;;;;;;;;14.27;50.02;101998.66;4928162;28;98338;-65
2022/01/14 12:13:29;;;;;;;;;;;;;;;14.25;50.19;101989.94;4922439;28;97982;-57
2022/01/14 12:15:58;;;;;;;;;;;;;;;14.25;50.02;101977.22;4920713;28;98821;-64
2022/01/14 12:18:58;;;;;;;;;;;;;;;14.29;50.12;101972.09;4922192;28;98588;-57
2022/01/14 12:21:50;;;;;;;;;;;;;;;14.30;50.24;101972.91;4921538;28;98122;-58
2022/01/14 12:24:16;;;;;;;;;;;;;;;14.29;50.29;101969.38;4921442;28;97838;-57
2022/01/14 12:26:51;;;;;;;;;;;;;;;14.28;50.20;101975.88;4920456;28;98646;-65
2022/01/14 12:29:17;;;;;;;;;;;;;;;14.26;50.15;101969.88;4921599;28;98501;-57
2022/01/14 12:32:03;;;;;;;;;;;;;;;14.24;50.56;101967.44;4933192;28;118355;-64
2022/01/14 12:34:55;;;;;;;;;;;;;;;14.24;50.31;101974.75;4921532;28;98244;-65
2022/01/14 12:37:32;;;;;;;;;;;;;;;14.22;50.50;101980.44;4913742;28;98473;-57
2022/01/14 12:40:09;;;;;;;;;;;;;;;14.20;50.50;101973.63;4901307;28;120904;-57
2022/01/14 12:42:35;;;;;;;;;;;;;;;14.18;50.57;101976.59;4930425;28;98312;-57
2022/01/14 12:45:03;;;;;;;;;;;;;;;14.15;50.38;101996.09;4935258;28;102832;-65
2022/01/14 12:47:35;;;;;;;;;;;;;;;14.12;50.45;101985.75;4921105;28;98093;-57
2022/01/14 12:50:11;;;;;;;;;;;;;;;14.13;50.60;101981.16;4921012;28;98773;-66
2022/01/14 12:52:49;;;;;;;;;;;;;;;14.11;50.36;101978.69;4921688;28;98641;-57
2022/01/14 12:55:14;;;;;;;;;;;;;;;14.09;50.49;101966.47;4922429;28;98980;-65
2022/01/14 12:57:40;;;;;;;;;;;;;;;14.09;50.86;101963.75;4939499;28;128536;-57
2022/01/14 13:00:07;;;;;;;;;;;;;;;14.07;50.54;101966.72;4940396;28;98421;-58